createdAt,value
2023-01-25T00:00:59.648Z,20.10
2023-01-25T00:01:59.867Z,23.40
2023-01-25T00:03:00.029Z,24.10
2023-01-25T00:04:00.175Z,21.00
2023-01-25T00:05:00.372Z,22.90
2023-01-25T00:06:00.508Z,20.40
2023-01-25T00:07:00.696Z,20.90
2023-01-25T00:08:00.856Z,23.50
2023-01-25T00:09:01.054Z,23.10
2023-01-25T00:10:01.203Z,20.80
2023-01-25T00:11:01.372Z,20.70
2023-01-25T00:12:01.579Z,21.20
2023-01-25T00:13:01.705Z,22.30
2023-01-25T00:14:01.877Z,20.90
2023-01-25T00:15:02.161Z,22.50
2023-01-25T00:16:02.197Z,20.30
2023-01-25T00:17:02.390Z,24.20
2023-01-25T00:18:02.536Z,21.60
2023-01-25T00:19:02.738Z,23.00
2023-01-25T00:20:02.884Z,22.40
2023-01-25T00:21:03.041Z,22.00
2023-01-25T00:22:03.248Z,25.40
2023-01-25T00:23:03.397Z,25.10
2023-01-25T00:24:03.698Z,21.00
2023-01-25T00:25:03.796Z,24.30
2023-01-25T00:26:03.958Z,22.00
2023-01-25T00:27:04.204Z,20.10
2023-01-25T00:28:04.301Z,20.20
2023-01-25T00:29:04.483Z,18.10
2023-01-25T00:30:04.791Z,26.10
2023-01-25T00:31:04.810Z,26.30
2023-01-25T00:32:05.081Z,21.90
2023-01-25T00:33:05.157Z,18.40
2023-01-25T00:34:05.332Z,21.10
2023-01-25T00:35:05.960Z,19.80
2023-01-25T00:36:05.684Z,25.30
2023-01-25T00:37:05.851Z,21.80
2023-01-25T00:38:06.021Z,26.30
2023-01-25T00:39:06.237Z,19.70
2023-01-25T00:40:06.405Z,22.80
2023-01-25T00:41:06.581Z,18.00
2023-01-25T00:42:06.742Z,22.90
2023-01-25T00:43:06.954Z,20.50
2023-01-25T00:44:07.111Z,20.30
2023-01-25T00:45:07.630Z,25.00
2023-01-25T00:46:07.563Z,22.10
2023-01-25T00:47:07.632Z,23.60
2023-01-25T00:48:07.834Z,22.30
2023-01-25T00:49:08.058Z,20.60
2023-01-25T00:50:08.216Z,21.00
2023-01-25T00:51:08.344Z,21.60
2023-01-25T00:52:08.550Z,21.00
2023-01-25T00:53:08.686Z,19.80
2023-01-25T00:54:08.865Z,25.20
2023-01-25T00:55:09.446Z,21.80
2023-01-25T00:56:09.272Z,22.70
2023-01-25T00:57:09.382Z,24.10
2023-01-25T00:58:09.565Z,22.70
2023-01-25T00:59:09.718Z,22.00
2023-01-25T01:00:09.902Z,21.30
2023-01-25T01:01:10.202Z,27.40
2023-01-25T01:02:10.250Z,23.70
2023-01-25T01:03:10.439Z,25.40
2023-01-25T01:04:10.598Z,23.80
2023-01-25T01:05:11.371Z,19.80
2023-01-25T01:06:11.002Z,21.70
2023-01-25T01:07:11.137Z,21.80
2023-01-25T01:08:11.308Z,21.30
2023-01-25T01:09:11.521Z,24.60
2023-01-25T01:10:11.671Z,22.30
2023-01-25T01:11:11.855Z,20.10
2023-01-25T01:12:12.042Z,19.80
2023-01-25T01:13:12.201Z,21.50
2023-01-25T01:14:12.375Z,23.30
2023-01-25T01:15:12.577Z,20.10
2023-01-25T01:16:12.781Z,22.30
2023-01-25T01:17:12.900Z,20.70
2023-01-25T01:18:13.135Z,23.40
2023-01-25T01:19:13.305Z,21.90
2023-01-25T01:20:13.458Z,23.10
2023-01-25T01:21:13.628Z,20.40
2023-01-25T01:22:13.828Z,23.10
2023-01-25T01:23:13.985Z,19.70
2023-01-25T01:24:14.203Z,21.80
2023-01-25T01:25:14.355Z,21.80
2023-01-25T01:26:14.533Z,20.90
2023-01-25T01:27:14.667Z,22.50
2023-01-25T01:28:14.847Z,18.90
2023-01-25T01:29:15.141Z,18.70
2023-01-25T01:30:15.207Z,22.90
2023-01-25T01:31:15.395Z,27.80
2023-01-25T01:32:15.946Z,22.50
2023-01-25T01:33:15.744Z,22.40
2023-01-25T01:34:15.965Z,27.00
2023-01-25T01:35:16.116Z,20.70
2023-01-25T01:36:16.271Z,19.30
2023-01-25T01:37:16.464Z,20.90
2023-01-25T01:38:16.626Z,21.10
2023-01-25T01:39:16.805Z,24.30
2023-01-25T01:40:16.979Z,20.50
2023-01-25T01:41:17.150Z,22.70
2023-01-25T01:42:17.416Z,22.60
2023-01-25T01:43:17.514Z,22.10
2023-01-25T01:44:17.695Z,19.70
2023-01-25T01:45:17.976Z,24.00
2023-01-25T01:46:18.120Z,19.20
2023-01-25T01:47:18.252Z,20.60
2023-01-25T01:48:18.453Z,19.80
2023-01-25T01:49:18.618Z,23.20
2023-01-25T01:50:18.770Z,19.70
2023-01-25T01:51:19.782Z,22.50
2023-01-25T01:52:19.140Z,22.90
2023-01-25T01:53:19.285Z,20.10
2023-01-25T01:54:19.474Z,22.70
2023-01-25T01:55:19.782Z,22.70
2023-01-25T01:56:19.894Z,24.20
2023-01-25T01:57:20.014Z,21.50
2023-01-25T01:58:20.214Z,19.40
2023-01-25T01:59:20.383Z,24.90
2023-01-25T02:00:20.543Z,21.80
2023-01-25T02:01:20.768Z,22.10
2023-01-25T02:02:20.931Z,24.80
2023-01-25T02:03:21.074Z,21.00
2023-01-25T02:04:21.221Z,22.10
2023-01-25T02:05:21.422Z,23.20
2023-01-25T02:06:21.562Z,23.70
2023-01-25T02:07:21.759Z,23.30
2023-01-25T02:08:22.027Z,21.70
2023-01-25T02:09:22.134Z,22.40
2023-01-25T02:10:22.307Z,20.90
2023-01-25T02:11:22.556Z,21.50
2023-01-25T02:12:22.660Z,21.40
2023-01-25T02:13:22.860Z,21.40
2023-01-25T02:14:23.109Z,23.00
2023-01-25T02:15:23.201Z,20.60
2023-01-25T02:16:23.376Z,20.60
2023-01-25T02:17:23.606Z,20.20
2023-01-25T02:18:23.728Z,18.80
2023-01-25T02:19:23.940Z,20.30
2023-01-25T02:20:24.093Z,18.90
2023-01-25T02:21:24.261Z,20.10
2023-01-25T02:22:24.431Z,26.70
2023-01-25T02:23:24.634Z,24.70
2023-01-25T02:24:24.883Z,24.90
2023-01-25T02:25:25.007Z,19.00
2023-01-25T02:26:25.179Z,21.30
2023-01-25T02:27:25.358Z,19.10
2023-01-25T02:28:25.529Z,19.60
2023-01-25T02:29:25.699Z,22.40
2023-01-25T02:30:25.885Z,22.10
2023-01-25T02:31:26.265Z,19.50
2023-01-25T02:32:26.232Z,21.00
2023-01-25T02:33:26.440Z,19.80
2023-01-25T02:34:26.608Z,20.20
2023-01-25T02:35:26.745Z,20.60
2023-01-25T02:36:26.919Z,22.50
2023-01-25T02:37:27.112Z,21.70
2023-01-25T02:38:27.301Z,26.70
2023-01-25T02:39:27.437Z,24.80
2023-01-25T02:40:27.711Z,23.20
2023-01-25T02:41:27.813Z,21.50
2023-01-25T02:42:27.997Z,19.00
2023-01-25T02:43:28.254Z,22.40
2023-01-25T02:44:28.335Z,17.20
2023-01-25T02:45:28.520Z,19.30
2023-01-25T02:46:28.744Z,20.40
2023-01-25T02:47:28.826Z,24.40
2023-01-25T02:48:29.009Z,19.40
2023-01-25T02:49:29.197Z,18.90
2023-01-25T02:50:29.336Z,24.40
2023-01-25T02:51:29.498Z,20.70
2023-01-25T02:52:29.676Z,19.70
2023-01-25T02:53:29.849Z,22.90
2023-01-25T02:54:30.037Z,17.00
2023-01-25T02:55:30.228Z,18.40
2023-01-25T02:56:30.409Z,22.50
2023-01-25T02:57:30.595Z,18.50
2023-01-25T02:58:30.744Z,23.40
2023-01-25T02:59:30.944Z,20.90
2023-01-25T03:00:31.125Z,18.40
2023-01-25T03:01:31.359Z,21.00
2023-01-25T03:02:31.595Z,17.90
2023-01-25T03:03:31.670Z,20.10
2023-01-25T03:04:31.844Z,16.70
2023-01-25T03:05:32.146Z,24.10
2023-01-25T03:06:32.189Z,20.80
2023-01-25T03:07:32.431Z,16.30
2023-01-25T03:08:32.565Z,16.90
2023-01-25T03:09:32.745Z,16.70
2023-01-25T03:10:32.923Z,18.40
2023-01-25T03:11:33.098Z,20.70
2023-01-25T03:12:33.274Z,21.00
2023-01-25T03:13:33.453Z,16.90
2023-01-25T03:14:33.698Z,18.90
2023-01-25T03:15:33.821Z,27.70
2023-01-25T03:16:34.038Z,18.70
2023-01-25T03:17:34.217Z,19.50
2023-01-25T03:18:34.306Z,17.40
2023-01-25T03:19:34.483Z,17.30
2023-01-25T03:20:34.743Z,21.90
2023-01-25T03:21:34.830Z,19.10
2023-01-25T03:22:35.012Z,23.00
2023-01-25T03:23:35.225Z,19.90
2023-01-25T03:24:35.354Z,21.00
2023-01-25T03:25:35.558Z,20.80
2023-01-25T03:26:35.703Z,23.60
2023-01-25T03:27:35.876Z,21.80
2023-01-25T03:28:36.064Z,19.30
2023-01-25T03:29:36.244Z,23.30
2023-01-25T03:30:36.444Z,20.60
2023-01-25T03:31:36.785Z,21.20
2023-01-25T03:32:36.784Z,20.50
2023-01-25T03:33:37.054Z,19.80
2023-01-25T03:34:37.144Z,20.20
2023-01-25T03:35:37.342Z,22.70
2023-01-25T03:36:37.545Z,19.10
2023-01-25T03:37:37.691Z,19.90
2023-01-25T03:38:37.874Z,19.90
2023-01-25T03:39:38.062Z,18.00
2023-01-25T03:40:38.364Z,21.20
2023-01-25T03:41:38.404Z,19.50
2023-01-25T03:42:38.593Z,22.30
2023-01-25T03:43:38.867Z,22.30
2023-01-25T03:44:38.960Z,17.30
2023-01-25T03:45:39.131Z,19.70
2023-01-25T03:46:39.379Z,21.40
2023-01-25T03:47:39.463Z,23.40
2023-01-25T03:48:39.633Z,21.60
2023-01-25T03:49:39.820Z,19.80
2023-01-25T03:50:40.020Z,19.90
2023-01-25T03:51:40.203Z,23.30
2023-01-25T03:52:40.351Z,23.60
2023-01-25T03:53:40.536Z,19.90
2023-01-25T03:54:40.719Z,23.30
2023-01-25T03:55:40.910Z,15.60
2023-01-25T03:56:41.082Z,20.10
2023-01-25T03:57:41.231Z,21.00
2023-01-25T03:58:41.423Z,15.80
2023-01-25T03:59:41.594Z,17.50
2023-01-25T04:00:41.787Z,17.60
2023-01-25T04:01:42.033Z,20.60
2023-01-25T04:02:42.177Z,16.70
2023-01-25T04:03:42.311Z,16.70
2023-01-25T04:04:42.547Z,21.30
2023-01-25T04:05:42.637Z,18.10
2023-01-25T04:06:42.807Z,12.40
2023-01-25T04:07:43.032Z,12.70
2023-01-25T04:08:43.179Z,14.40
2023-01-25T04:09:43.366Z,18.90
2023-01-25T04:10:43.569Z,19.60
2023-01-25T04:11:43.696Z,15.50
2023-01-25T04:12:43.866Z,17.80
2023-01-25T04:13:44.098Z,18.10
2023-01-25T04:14:45.082Z,19.80
2023-01-25T04:15:44.380Z,16.80
2023-01-25T04:16:44.600Z,19.20
2023-01-25T04:17:44.718Z,19.60
2023-01-25T04:18:44.938Z,22.50
2023-01-25T04:19:45.079Z,17.80
2023-01-25T04:20:45.265Z,17.90
2023-01-25T04:21:45.440Z,23.70
2023-01-25T04:22:45.639Z,18.90
2023-01-25T04:23:45.953Z,18.90
2023-01-25T04:24:45.976Z,17.80
2023-01-25T04:25:46.165Z,24.30
2023-01-25T04:26:46.480Z,19.40
2023-01-25T04:27:46.508Z,16.70
2023-01-25T04:28:46.685Z,20.00
2023-01-25T04:29:46.950Z,16.50
2023-01-25T04:30:47.055Z,18.80
2023-01-25T04:31:47.322Z,17.50
2023-01-25T04:32:47.514Z,19.70
2023-01-25T04:33:48.333Z,18.40
2023-01-25T04:34:47.734Z,18.30
2023-01-25T04:35:47.909Z,18.60
2023-01-25T04:36:48.095Z,20.20
2023-01-25T04:37:48.237Z,17.50
2023-01-25T04:38:48.428Z,18.40
2023-01-25T04:39:48.603Z,18.80
2023-01-25T04:40:48.765Z,19.70
2023-01-25T04:41:48.974Z,17.60
2023-01-25T04:42:49.153Z,19.00
2023-01-25T04:43:49.296Z,12.30
2023-01-25T04:44:49.444Z,14.70
2023-01-25T04:45:49.713Z,12.20
2023-01-25T04:46:49.805Z,12.50
2023-01-25T04:47:49.938Z,13.30
2023-01-25T04:48:50.157Z,12.10
2023-01-25T04:49:50.286Z,15.00
2023-01-25T04:50:50.472Z,15.50
2023-01-25T04:51:50.632Z,11.20
2023-01-25T04:52:50.811Z,13.40
2023-01-25T04:53:51.036Z,13.90
2023-01-25T04:54:51.181Z,11.00
2023-01-25T04:55:51.433Z,11.80
2023-01-25T04:56:51.562Z,11.30
2023-01-25T04:57:51.729Z,10.70
2023-01-25T04:58:51.892Z,10.50
2023-01-25T04:59:52.082Z,11.50
2023-01-25T05:00:52.271Z,10.40
2023-01-25T05:01:52.422Z,12.10
2023-01-25T05:02:52.673Z,11.70
2023-01-25T05:03:52.796Z,12.20
2023-01-25T05:04:52.932Z,11.40
2023-01-25T05:05:53.159Z,14.40
2023-01-25T05:06:53.325Z,14.80
2023-01-25T05:07:53.457Z,13.00
2023-01-25T05:08:53.664Z,10.20
2023-01-25T05:09:53.804Z,10.20
2023-01-25T05:10:53.981Z,14.80
2023-01-25T05:11:54.146Z,10.60
2023-01-25T05:12:54.316Z,10.60
2023-01-25T05:13:54.505Z,8.90
2023-01-25T05:14:54.660Z,8.00
2023-01-25T05:15:54.818Z,9.00
2023-01-25T05:16:55.125Z,7.00
2023-01-25T05:17:55.156Z,9.30
2023-01-25T05:18:55.368Z,13.40
2023-01-25T05:19:55.527Z,9.30
2023-01-25T05:20:55.684Z,7.90
2023-01-25T05:21:55.949Z,10.20
2023-01-25T05:22:56.000Z,7.00
2023-01-25T05:23:56.221Z,10.30
2023-01-25T05:24:56.388Z,10.60
2023-01-25T05:25:56.509Z,8.80
2023-01-25T05:26:56.691Z,9.90
2023-01-25T05:27:56.877Z,12.00
2023-01-25T05:28:57.063Z,10.50
2023-01-25T05:29:57.224Z,8.20
2023-01-25T05:30:57.439Z,8.30
2023-01-25T05:31:57.567Z,8.30
2023-01-25T05:32:57.722Z,8.20
2023-01-25T05:33:57.895Z,10.70
2023-01-25T05:34:59.996Z,11.30
2023-01-25T05:35:58.231Z,9.10
2023-01-25T05:36:58.456Z,8.70
2023-01-25T05:37:58.578Z,8.90
2023-01-25T05:38:58.767Z,8.60
2023-01-25T05:39:58.947Z,7.90
2023-01-25T05:40:59.109Z,6.60
2023-01-25T05:41:59.292Z,8.40
2023-01-25T05:42:59.437Z,6.80
2023-01-25T05:43:59.679Z,7.50
2023-01-25T05:44:59.757Z,6.40
2023-01-25T05:46:00.013Z,7.30
2023-01-25T05:47:00.176Z,8.30
2023-01-25T05:48:00.265Z,7.20
2023-01-25T05:49:00.434Z,5.80
2023-01-25T05:50:00.615Z,6.90
2023-01-25T05:51:00.771Z,9.30
2023-01-25T05:52:00.945Z,8.30
2023-01-25T05:53:01.128Z,8.70
2023-01-25T05:54:01.315Z,10.10
2023-01-25T05:55:01.461Z,8.50
2023-01-25T05:56:01.605Z,9.80
2023-01-25T05:57:01.924Z,8.00
2023-01-25T05:58:01.968Z,8.40
2023-01-25T05:59:02.137Z,10.90
2023-01-25T06:00:02.361Z,12.90
2023-01-25T06:01:02.792Z,12.30
2023-01-25T06:02:02.681Z,9.70
2023-01-25T06:03:02.966Z,8.80
2023-01-25T06:04:03.044Z,11.10
2023-01-25T06:05:03.215Z,10.20
2023-01-25T06:06:03.393Z,9.10
2023-01-25T06:07:03.610Z,10.10
2023-01-25T06:08:03.710Z,10.40
2023-01-25T06:09:03.875Z,9.30
2023-01-25T06:10:04.093Z,9.50
2023-01-25T06:11:04.216Z,10.70
2023-01-25T06:12:04.416Z,11.50
2023-01-25T06:13:04.545Z,10.40
2023-01-25T06:14:04.724Z,10.00
2023-01-25T06:15:04.931Z,11.60
2023-01-25T06:16:05.146Z,11.00
2023-01-25T06:17:05.345Z,11.70
2023-01-25T06:18:05.401Z,12.70
2023-01-25T06:19:05.603Z,9.80
2023-01-25T06:20:05.855Z,10.90
2023-01-25T06:21:05.941Z,9.70
2023-01-25T06:22:06.128Z,8.10
2023-01-25T06:23:06.367Z,9.20
2023-01-25T06:24:06.531Z,8.70
2023-01-25T06:25:08.115Z,7.50
2023-01-25T06:26:06.923Z,10.20
2023-01-25T06:27:07.033Z,13.20
2023-01-25T06:28:07.176Z,8.90
2023-01-25T06:29:07.346Z,9.70
2023-01-25T06:30:07.536Z,9.00
2023-01-25T06:31:07.690Z,9.90
2023-01-25T06:32:07.873Z,8.40
2023-01-25T06:33:08.015Z,11.10
2023-01-25T06:34:08.190Z,9.20
2023-01-25T06:35:08.662Z,8.40
2023-01-25T06:36:08.576Z,9.70
2023-01-25T06:37:08.763Z,10.10
2023-01-25T06:38:08.913Z,10.40
2023-01-25T06:39:09.161Z,8.70
2023-01-25T06:40:09.239Z,11.10
2023-01-25T06:41:11.048Z,9.10
2023-01-25T06:42:09.699Z,10.40
2023-01-25T06:43:09.772Z,12.30
2023-01-25T06:44:09.934Z,13.80
2023-01-25T06:45:10.600Z,8.80
2023-01-25T06:46:10.405Z,9.80
2023-01-25T06:47:10.556Z,11.40
2023-01-25T06:48:12.791Z,11.70
2023-01-25T06:49:10.841Z,10.70
2023-01-25T06:50:11.043Z,10.20
2023-01-25T06:51:11.204Z,9.00
2023-01-25T06:52:11.391Z,11.10
2023-01-25T06:53:11.546Z,10.50
2023-01-25T06:54:11.698Z,10.30
2023-01-25T06:55:12.078Z,9.80
2023-01-25T06:56:12.178Z,10.10
2023-01-25T06:57:12.259Z,9.10
2023-01-25T06:58:12.502Z,8.50
2023-01-25T06:59:12.608Z,10.30
2023-01-25T07:00:12.826Z,10.10
2023-01-25T07:01:13.100Z,10.70
2023-01-25T07:02:13.097Z,10.90
2023-01-25T07:03:13.285Z,11.40
2023-01-25T07:04:13.555Z,11.40
2023-01-25T07:05:13.646Z,8.80
2023-01-25T07:06:13.824Z,8.80
2023-01-25T07:07:14.022Z,15.00
2023-01-25T07:08:14.244Z,11.40
2023-01-25T07:09:14.350Z,10.60
2023-01-25T07:10:14.553Z,12.80
2023-01-25T07:11:14.718Z,12.00
2023-01-25T07:12:14.876Z,12.50
2023-01-25T07:13:15.036Z,14.70
2023-01-25T07:14:15.210Z,17.10
2023-01-25T07:15:15.422Z,14.10
2023-01-25T07:16:15.556Z,15.40
2023-01-25T07:17:15.829Z,11.90
2023-01-25T07:18:16.799Z,16.20
2023-01-25T07:19:16.105Z,16.00
2023-01-25T07:20:16.279Z,15.40
2023-01-25T07:21:16.462Z,13.90
2023-01-25T07:22:16.656Z,13.70
2023-01-25T07:23:16.806Z,15.10
2023-01-25T07:24:17.053Z,13.70
2023-01-25T07:25:17.165Z,11.80
2023-01-25T07:26:17.337Z,12.40
2023-01-25T07:27:17.637Z,15.60
2023-01-25T07:28:17.695Z,13.80
2023-01-25T07:29:17.889Z,14.90
2023-01-25T07:30:18.111Z,13.50
2023-01-25T07:31:18.302Z,12.90
2023-01-25T07:32:18.441Z,15.10
2023-01-25T07:33:18.596Z,14.30
2023-01-25T07:34:18.752Z,12.90
2023-01-25T07:35:18.913Z,16.00
2023-01-25T07:36:19.204Z,15.10
2023-01-25T07:37:19.291Z,14.40
2023-01-25T07:38:19.467Z,13.10
2023-01-25T07:39:19.672Z,13.50
2023-01-25T07:40:19.783Z,14.80
2023-01-25T07:41:20.036Z,13.30
2023-01-25T07:42:20.215Z,12.80
2023-01-25T07:43:20.381Z,15.40
2023-01-25T07:44:20.546Z,13.30
2023-01-25T07:45:20.682Z,16.90
2023-01-25T07:46:20.939Z,13.00
2023-01-25T07:47:21.042Z,13.80
2023-01-25T07:48:21.228Z,15.10
2023-01-25T07:49:21.486Z,13.00
2023-01-25T07:50:21.561Z,13.30
2023-01-25T07:51:21.752Z,13.00
2023-01-25T07:52:21.920Z,13.50
2023-01-25T07:53:22.114Z,13.40
2023-01-25T07:54:22.290Z,12.80
2023-01-25T07:55:22.505Z,14.70
2023-01-25T07:56:22.642Z,15.00
2023-01-25T07:57:22.832Z,11.50
2023-01-25T07:58:22.962Z,15.40
2023-01-25T07:59:23.172Z,16.40
2023-01-25T08:00:24.855Z,14.80
2023-01-25T08:01:23.590Z,12.30
2023-01-25T08:02:23.724Z,15.40
2023-01-25T08:03:23.881Z,15.70
2023-01-25T08:04:24.106Z,20.00
2023-01-25T08:05:24.248Z,17.40
2023-01-25T08:06:24.447Z,16.90
2023-01-25T08:07:24.627Z,15.70
2023-01-25T08:08:24.799Z,17.00
2023-01-25T08:09:24.974Z,22.10
2023-01-25T08:10:25.150Z,18.50
2023-01-25T08:11:25.346Z,16.70
2023-01-25T08:12:25.498Z,14.70
2023-01-25T08:13:25.661Z,19.00
2023-01-25T08:14:25.887Z,15.60
2023-01-25T08:15:26.032Z,17.20
2023-01-25T08:16:26.223Z,14.60
2023-01-25T08:17:26.388Z,16.00
2023-01-25T08:18:26.576Z,18.10
2023-01-25T08:19:26.927Z,17.00
2023-01-25T08:20:26.916Z,13.50
2023-01-25T08:21:27.087Z,16.20
2023-01-25T08:22:27.267Z,19.30
2023-01-25T08:23:27.434Z,21.20
2023-01-25T08:24:27.657Z,17.10
2023-01-25T08:25:27.779Z,21.60
2023-01-25T08:26:27.994Z,19.70
2023-01-25T08:27:28.159Z,21.00
2023-01-25T08:28:28.352Z,21.20
2023-01-25T08:29:28.716Z,17.20
2023-01-25T08:30:28.693Z,26.00
2023-01-25T08:31:28.879Z,20.60
2023-01-25T08:32:29.044Z,21.10
2023-01-25T08:33:29.192Z,21.90
2023-01-25T08:34:29.389Z,32.70
2023-01-25T08:35:29.518Z,38.40
2023-01-25T08:36:29.686Z,31.40
2023-01-25T08:37:29.884Z,20.40
2023-01-25T08:38:30.028Z,18.00
2023-01-25T08:39:30.226Z,16.80
2023-01-25T08:40:30.389Z,13.90
2023-01-25T08:41:30.549Z,14.70
2023-01-25T08:42:30.773Z,14.40
2023-01-25T08:43:30.908Z,14.00
2023-01-25T08:44:31.117Z,18.50
2023-01-25T08:45:31.284Z,21.70
2023-01-25T08:46:31.962Z,17.80
2023-01-25T08:47:31.645Z,16.80
2023-01-25T08:48:31.827Z,15.50
2023-01-25T08:49:32.047Z,15.40
2023-01-25T08:50:32.154Z,19.40
2023-01-25T08:51:32.388Z,14.70
2023-01-25T08:52:32.546Z,13.20
2023-01-25T08:53:32.684Z,15.90
2023-01-25T08:54:32.886Z,16.40
2023-01-25T08:55:33.052Z,20.10
2023-01-25T08:56:33.222Z,17.30
2023-01-25T08:57:33.403Z,16.10
2023-01-25T08:58:33.588Z,19.30
2023-01-25T08:59:33.734Z,15.90
2023-01-25T09:00:33.930Z,19.90
2023-01-25T09:01:34.151Z,17.50
2023-01-25T09:02:34.322Z,20.00
2023-01-25T09:03:34.493Z,16.00
2023-01-25T09:04:34.687Z,17.90
2023-01-25T09:05:34.805Z,18.50
2023-01-25T09:06:35.013Z,15.50
2023-01-25T09:07:35.171Z,17.90
2023-01-25T09:08:35.341Z,18.60
2023-01-25T09:09:35.545Z,18.80
2023-01-25T09:10:35.714Z,17.80
2023-01-25T09:11:35.895Z,17.90
2023-01-25T09:12:36.109Z,20.40
2023-01-25T09:13:36.292Z,18.90
2023-01-25T09:14:36.473Z,19.30
2023-01-25T09:15:36.641Z,17.20
2023-01-25T09:16:36.763Z,19.70
2023-01-25T09:17:36.949Z,19.90
2023-01-25T09:18:37.137Z,19.90
2023-01-25T09:19:37.347Z,19.70
2023-01-25T09:20:37.502Z,19.30
2023-01-25T09:21:37.662Z,23.00
2023-01-25T09:22:37.877Z,19.30
2023-01-25T09:23:50.618Z,21.70
2023-01-25T09:24:39.710Z,19.60
2023-01-25T09:25:38.370Z,35.50
2023-01-25T09:26:38.508Z,38.40
2023-01-25T09:27:38.664Z,31.90
2023-01-25T09:28:38.857Z,24.40
2023-01-25T09:29:39.648Z,20.50
2023-01-25T09:30:46.829Z,20.90
2023-01-25T09:31:41.067Z,23.40
2023-01-25T09:32:39.634Z,20.60
2023-01-25T09:33:39.690Z,23.00
2023-01-25T09:34:39.860Z,23.20
2023-01-25T09:35:40.029Z,21.10
2023-01-25T09:36:40.282Z,23.80
2023-01-25T09:37:40.382Z,21.90
2023-01-25T09:38:40.537Z,21.90
2023-01-25T09:39:40.731Z,24.00
2023-01-25T09:40:40.901Z,20.00
2023-01-25T09:41:41.068Z,18.80
2023-01-25T09:42:41.249Z,20.80
2023-01-25T09:43:41.409Z,24.00
2023-01-25T09:44:41.609Z,20.40
2023-01-25T09:45:41.766Z,19.80
2023-01-25T09:46:42.019Z,22.30
2023-01-25T09:47:42.103Z,22.70
2023-01-25T09:48:42.269Z,23.10
2023-01-25T09:49:42.418Z,24.50
2023-01-25T09:50:42.627Z,24.40
2023-01-25T09:51:42.786Z,21.30
2023-01-25T09:52:42.978Z,18.90
2023-01-25T09:53:43.134Z,21.40
2023-01-25T09:54:47.106Z,23.80
2023-01-25T09:55:43.497Z,21.80
2023-01-25T09:56:43.672Z,20.00
2023-01-25T09:57:43.870Z,20.90
2023-01-25T09:58:44.017Z,23.90
2023-01-25T09:59:44.214Z,24.90
2023-01-25T10:00:44.374Z,23.30
2023-01-25T10:01:44.568Z,22.50
2023-01-25T10:02:44.748Z,23.00
2023-01-25T10:03:44.869Z,20.60
2023-01-25T10:04:45.045Z,24.00
2023-01-25T10:05:45.258Z,21.80
2023-01-25T10:06:55.196Z,24.60
2023-01-25T10:07:46.596Z,24.90
2023-01-25T10:08:45.764Z,22.40
2023-01-25T10:09:45.915Z,24.60
2023-01-25T10:10:46.107Z,21.40
2023-01-25T10:11:46.235Z,24.20
2023-01-25T10:12:46.425Z,28.90
2023-01-25T10:13:46.567Z,22.30
2023-01-25T10:14:46.764Z,25.60
2023-01-25T10:15:46.928Z,23.60
2023-01-25T10:16:47.119Z,25.10
2023-01-25T10:17:47.275Z,20.00
2023-01-25T10:18:47.455Z,22.90
2023-01-25T10:19:47.583Z,22.20
2023-01-25T10:20:47.852Z,23.80
2023-01-25T10:21:47.933Z,23.40
2023-01-25T10:22:48.124Z,24.40
2023-01-25T10:23:48.323Z,27.70
2023-01-25T10:24:48.479Z,23.40
2023-01-25T10:25:48.661Z,24.10
2023-01-25T10:26:48.823Z,21.30
2023-01-25T10:27:49.013Z,23.80
2023-01-25T10:28:49.184Z,26.00
2023-01-25T10:29:49.373Z,20.00
2023-01-25T10:30:49.567Z,20.10
2023-01-25T10:31:49.768Z,23.20
2023-01-25T10:32:55.953Z,23.50
2023-01-25T10:33:51.093Z,21.00
2023-01-25T10:34:56.705Z,19.90
2023-01-25T10:35:51.440Z,18.70
2023-01-25T10:36:50.647Z,22.00
2023-01-25T10:37:50.790Z,27.50
2023-01-25T10:38:50.933Z,21.10
2023-01-25T10:39:51.121Z,23.60
2023-01-25T10:40:51.328Z,22.90
2023-01-25T10:41:51.492Z,23.90
2023-01-25T10:42:51.781Z,26.30
2023-01-25T10:43:51.810Z,25.30
2023-01-25T10:44:52.002Z,29.10
2023-01-25T10:45:52.169Z,27.90
2023-01-25T10:46:52.378Z,25.10
2023-01-25T10:47:52.542Z,24.00
2023-01-25T10:48:52.701Z,23.50
2023-01-25T10:49:52.869Z,25.20
2023-01-25T10:50:53.032Z,24.10
2023-01-25T10:51:53.228Z,23.80
2023-01-25T10:52:53.432Z,29.00
2023-01-25T10:53:53.569Z,24.70
2023-01-25T10:54:53.761Z,27.40
2023-01-25T10:55:53.921Z,23.20
2023-01-25T10:56:54.117Z,20.40
2023-01-25T10:57:54.300Z,22.00
2023-01-25T10:58:54.501Z,19.30
2023-01-25T10:59:54.631Z,21.60
2023-01-25T11:00:54.830Z,24.90
2023-01-25T11:01:55.025Z,24.90
2023-01-25T11:02:55.234Z,22.80
2023-01-25T11:03:55.345Z,18.50
2023-01-25T11:04:55.563Z,25.90
2023-01-25T11:05:55.691Z,19.00
2023-01-25T11:06:55.869Z,21.80
2023-01-25T11:07:56.079Z,23.00
2023-01-25T11:08:56.226Z,23.30
2023-01-25T11:09:56.439Z,22.30
2023-01-25T11:10:56.618Z,19.80
2023-01-25T11:11:56.741Z,20.90
2023-01-25T11:12:56.936Z,18.60
2023-01-25T11:13:57.097Z,21.90
2023-01-25T11:14:57.293Z,19.00
2023-01-25T11:15:57.499Z,19.50
2023-01-25T11:16:57.608Z,19.40
2023-01-25T11:17:57.791Z,19.10
2023-01-25T11:18:57.975Z,24.80
2023-01-25T11:19:58.137Z,20.80
2023-01-25T11:20:58.318Z,22.40
2023-01-25T11:21:58.479Z,19.70
2023-01-25T11:22:58.674Z,20.70
2023-01-25T11:23:58.907Z,20.50
2023-01-25T11:24:59.016Z,18.20
2023-01-25T11:25:59.199Z,20.80
2023-01-25T11:26:59.377Z,22.40
2023-01-25T11:27:59.547Z,20.70
2023-01-25T11:28:59.746Z,27.30
2023-01-25T11:29:59.889Z,23.90
2023-01-25T11:31:00.219Z,21.90
2023-01-25T11:32:00.344Z,20.60
2023-01-25T11:33:00.447Z,22.00
2023-01-25T11:34:00.661Z,21.80
2023-01-25T11:35:00.805Z,22.10
2023-01-25T11:36:00.985Z,23.50
2023-01-25T11:37:01.170Z,19.30
2023-01-25T11:38:01.345Z,19.50
2023-01-25T11:39:01.581Z,20.80
2023-01-25T11:40:01.777Z,20.40
2023-01-25T11:41:01.886Z,16.80
2023-01-25T11:42:02.067Z,18.20
2023-01-25T11:43:02.272Z,19.90
2023-01-25T11:44:02.443Z,19.80
2023-01-25T11:45:02.615Z,22.10
2023-01-25T11:46:02.870Z,19.40
2023-01-25T11:47:02.959Z,19.50
2023-01-25T11:48:03.104Z,19.50
2023-01-25T11:49:03.314Z,19.40
2023-01-25T11:50:03.481Z,20.80
2023-01-25T11:51:03.645Z,19.30
2023-01-25T11:52:03.823Z,19.60
2023-01-25T11:53:04.013Z,20.00
2023-01-25T11:54:04.220Z,22.50
2023-01-25T11:55:04.468Z,22.50
2023-01-25T11:56:04.556Z,21.50
2023-01-25T11:57:04.734Z,22.40
2023-01-25T11:58:04.920Z,19.40
2023-01-25T11:59:05.135Z,20.10
2023-01-25T12:00:05.267Z,19.10
2023-01-25T12:01:05.443Z,20.50
2023-01-25T12:02:05.614Z,21.30
2023-01-25T12:03:05.945Z,21.90
2023-01-25T12:04:06.102Z,20.70
2023-01-25T12:05:09.702Z,20.10
2023-01-25T12:06:07.336Z,19.20
2023-01-25T12:07:06.497Z,19.00
2023-01-25T12:08:06.671Z,21.60
2023-01-25T12:09:06.883Z,23.60
2023-01-25T12:10:07.187Z,22.50
2023-01-25T12:11:07.219Z,23.90
2023-01-25T12:12:07.392Z,20.30
2023-01-25T12:13:07.586Z,19.00
2023-01-25T12:14:07.764Z,18.80
2023-01-25T12:15:07.953Z,17.90
2023-01-25T12:16:08.143Z,19.50
2023-01-25T12:17:10.752Z,20.30
2023-01-25T12:18:08.442Z,22.10
2023-01-25T12:19:08.611Z,19.80
2023-01-25T12:20:09.140Z,17.30
2023-01-25T12:21:09.482Z,20.60
2023-01-25T12:22:09.119Z,18.00
2023-01-25T12:23:09.308Z,20.10
2023-01-25T12:24:09.587Z,21.90
2023-01-25T12:25:09.676Z,21.90
2023-01-25T12:26:09.861Z,24.10
2023-01-25T12:27:10.046Z,18.40
2023-01-25T12:28:10.226Z,20.10
2023-01-25T12:29:10.411Z,20.20
2023-01-25T12:30:10.882Z,24.10
2023-01-25T12:31:10.798Z,16.50
2023-01-25T12:32:10.915Z,19.10
2023-01-25T12:33:15.040Z,17.40
2023-01-25T12:34:11.298Z,20.50
2023-01-25T12:35:11.439Z,20.80
2023-01-25T12:36:11.744Z,21.10
2023-01-25T12:37:11.792Z,18.80
2023-01-25T12:38:11.982Z,20.70
2023-01-25T12:39:12.188Z,20.50
2023-01-25T12:40:12.662Z,18.30
2023-01-25T12:41:12.518Z,18.20
2023-01-25T12:42:12.689Z,17.40
2023-01-25T12:43:12.861Z,14.70
2023-01-25T12:44:13.059Z,19.00
2023-01-25T12:45:13.216Z,18.90
2023-01-25T12:46:13.401Z,15.90
2023-01-25T12:47:15.087Z,20.60
2023-01-25T12:48:13.759Z,18.70
2023-01-25T12:49:13.966Z,18.30
2023-01-25T12:50:14.137Z,20.60
2023-01-25T12:51:14.278Z,18.20
2023-01-25T12:52:14.458Z,18.00
2023-01-25T12:53:14.636Z,17.10
2023-01-25T12:54:14.819Z,21.60
2023-01-25T12:55:14.986Z,21.30
2023-01-25T12:56:15.169Z,15.90
2023-01-25T12:57:15.324Z,17.80